Portada
METAR-TAF:

METAR-TAF

Aeroports :

Txità, Rússia

latitud: 52-05N, longitud: 113-29E, altitud: 685 m

Observació

L'informe es va fer fa 15 minuts, a les 10:30 UTC
Vent 4 kt del Nord-Oest
Temperatura -3°C
Humitat 86%
Pressió 1016 hPa
Visibilitat 10 km o més

METAR: UIAA 231030Z 31002MPS 9999 NSC M03/M05 Q1016 R29/CLRD70 NOSIG RMK QFE703/0938

Hora: 19:45 (10:45 UTC)

Pronòstic

L'informe es va fer fa 2 hores i 45 minuts, a les 08:00 UTC
Pronòstic vàlid del 23 a les 09 UTC al 24 a les 09 UTC
Vent 6 kt del Est
Visibilitat 10 km o més

TAF: UIAA 230800Z 2309/2409 08003MPS 9999 NSC

Observacions i pronòstics meteorològics de més de 4000 aeroports (METAR i TAF).

Les estacions disponibles són els punts grocs i vermells al mapa.

Posi el ratolí al punt desitjat per veure el nom de l'estació.

Feu clic per veure les observacions i els pronòstics meteorològics.

Per canviar el mapa: feu clic els botons verds amb una creu de color negre per apropar; al botó verd amb un guió per allunyar la imatge; o en les fletxes verdes per a mapes adjacents.


METAR-TAF: